sensor_id;sensor_type;location;lat;lon;timestamp;P1;durP1;ratioP1;P2;durP2;ratioP2
26750;SDS011;14345;48.272;25.926;2022-07-06T00:00:01;8.68;;;6.00;;
26750;SDS011;14345;48.272;25.926;2022-07-06T00:02:27;7.57;;;5.78;;
26750;SDS011;14345;48.272;25.926;2022-07-06T00:04:53;6.63;;;5.03;;
26750;SDS011;14345;48.272;25.926;2022-07-06T00:07:19;6.60;;;5.50;;
26750;SDS011;14345;48.272;25.926;2022-07-06T00:09:46;7.13;;;5.53;;
26750;SDS011;14345;48.272;25.926;2022-07-06T00:12:12;7.00;;;5.88;;
26750;SDS011;14345;48.272;25.926;2022-07-06T00:14:38;6.15;;;5.43;;
26750;SDS011;14345;48.272;25.926;2022-07-06T00:17:04;8.90;;;6.28;;
26750;SDS011;14345;48.272;25.926;2022-07-06T00:19:30;10.05;;;6.30;;
26750;SDS011;14345;48.272;25.926;2022-07-06T00:21:56;9.63;;;6.72;;
26750;SDS011;14345;48.272;25.926;2022-07-06T00:24:23;9.15;;;6.00;;
26750;SDS011;14345;48.272;25.926;2022-07-06T00:26:49;12.88;;;7.93;;
26750;SDS011;14345;48.272;25.926;2022-07-06T00:29:15;11.30;;;8.23;;
26750;SDS011;14345;48.272;25.926;2022-07-06T00:31:41;12.48;;;8.30;;
26750;SDS011;14345;48.272;25.926;2022-07-06T00:34:07;16.63;;;9.45;;
26750;SDS011;14345;48.272;25.926;2022-07-06T00:36:33;13.35;;;9.20;;
26750;SDS011;14345;48.272;25.926;2022-07-06T00:38:59;13.13;;;8.23;;
26750;SDS011;14345;48.272;25.926;2022-07-06T00:41:25;12.75;;;8.75;;
26750;SDS011;14345;48.272;25.926;2022-07-06T00:43:52;9.20;;;7.13;;
26750;SDS011;14345;48.272;25.926;2022-07-06T00:46:22;9.88;;;7.28;;
26750;SDS011;14345;48.272;25.926;2022-07-06T00:48:48;9.43;;;7.43;;
26750;SDS011;14345;48.272;25.926;2022-07-06T00:51:14;11.50;;;8.40;;
26750;SDS011;14345;48.272;25.926;2022-07-06T00:53:40;10.55;;;7.78;;
26750;SDS011;14345;48.272;25.926;2022-07-06T00:56:07;12.35;;;7.72;;
26750;SDS011;14345;48.272;25.926;2022-07-06T00:58:34;11.82;;;8.25;;
26750;SDS011;14345;48.272;25.926;2022-07-06T01:01:00;13.88;;;8.02;;
26750;SDS011;14345;48.272;25.926;2022-07-06T01:03:26;9.40;;;6.70;;
26750;SDS011;14345;48.272;25.926;2022-07-06T01:05:52;8.93;;;7.10;;
26750;SDS011;14345;48.272;25.926;2022-07-06T01:08:18;12.38;;;8.25;;
26750;SDS011;14345;48.272;25.926;2022-07-06T01:10:45;10.38;;;7.38;;
26750;SDS011;14345;48.272;25.926;2022-07-06T01:13:11;13.23;;;8.60;;
26750;SDS011;14345;48.272;25.926;2022-07-06T01:15:37;12.82;;;8.15;;
26750;SDS011;14345;48.272;25.926;2022-07-06T01:18:03;11.57;;;8.75;;
26750;SDS011;14345;48.272;25.926;2022-07-06T01:20:29;11.70;;;8.80;;
26750;SDS011;14345;48.272;25.926;2022-07-06T01:22:58;11.68;;;8.38;;
26750;SDS011;14345;48.272;25.926;2022-07-06T01:25:24;10.25;;;7.45;;
26750;SDS011;14345;48.272;25.926;2022-07-06T01:27:51;11.38;;;7.85;;
26750;SDS011;14345;48.272;25.926;2022-07-06T01:30:18;7.90;;;6.65;;
26750;SDS011;14345;48.272;25.926;2022-07-06T01:32:44;14.40;;;8.07;;
26750;SDS011;14345;48.272;25.926;2022-07-06T01:35:11;11.27;;;7.93;;
26750;SDS011;14345;48.272;25.926;2022-07-06T01:37:38;10.38;;;7.45;;
26750;SDS011;14345;48.272;25.926;2022-07-06T01:40:05;8.65;;;6.72;;
26750;SDS011;14345;48.272;25.926;2022-07-06T01:42:31;9.50;;;6.63;;
26750;SDS011;14345;48.272;25.926;2022-07-06T01:44:57;7.20;;;5.38;;
26750;SDS011;14345;48.272;25.926;2022-07-06T01:47:23;10.45;;;6.93;;
26750;SDS011;14345;48.272;25.926;2022-07-06T01:49:49;8.63;;;7.30;;
26750;SDS011;14345;48.272;25.926;2022-07-06T01:52:16;13.65;;;9.23;;
26750;SDS011;14345;48.272;25.926;2022-07-06T01:54:42;11.05;;;8.80;;
26750;SDS011;14345;48.272;25.926;2022-07-06T01:57:08;10.90;;;7.87;;
26750;SDS011;14345;48.272;25.926;2022-07-06T01:59:34;10.02;;;8.25;;
26750;SDS011;14345;48.272;25.926;2022-07-06T02:02:00;9.95;;;7.75;;
26750;SDS011;14345;48.272;25.926;2022-07-06T02:04:26;12.20;;;8.05;;
26750;SDS011;14345;48.272;25.926;2022-07-06T02:06:52;11.98;;;7.95;;
26750;SDS011;14345;48.272;25.926;2022-07-06T02:09:18;9.85;;;7.45;;
26750;SDS011;14345;48.272;25.926;2022-07-06T02:11:44;11.00;;;8.50;;
26750;SDS011;14345;48.272;25.926;2022-07-06T02:14:10;8.80;;;7.15;;
26750;SDS011;14345;48.272;25.926;2022-07-06T02:16:36;10.63;;;7.35;;
26750;SDS011;14345;48.272;25.926;2022-07-06T02:19:02;8.70;;;7.25;;
26750;SDS011;14345;48.272;25.926;2022-07-06T02:21:29;8.43;;;6.65;;
26750;SDS011;14345;48.272;25.926;2022-07-06T02:23:55;8.20;;;6.55;;
26750;SDS011;14345;48.272;25.926;2022-07-06T02:26:21;9.85;;;6.97;;
26750;SDS011;14345;48.272;25.926;2022-07-06T02:28:47;13.73;;;8.18;;
26750;SDS011;14345;48.272;25.926;2022-07-06T02:31:13;13.18;;;9.50;;
26750;SDS011;14345;48.272;25.926;2022-07-06T02:33:40;16.58;;;10.15;;
26750;SDS011;14345;48.272;25.926;2022-07-06T02:36:06;18.00;;;10.38;;
26750;SDS011;14345;48.272;25.926;2022-07-06T02:38:32;9.68;;;8.23;;
26750;SDS011;14345;48.272;25.926;2022-07-06T02:40:58;14.07;;;9.27;;
26750;SDS011;14345;48.272;25.926;2022-07-06T02:43:24;9.82;;;8.57;;
26750;SDS011;14345;48.272;25.926;2022-07-06T02:45:50;13.10;;;8.80;;
26750;SDS011;14345;48.272;25.926;2022-07-06T02:48:16;10.32;;;9.07;;
26750;SDS011;14345;48.272;25.926;2022-07-06T02:50:44;10.45;;;8.00;;
26750;SDS011;14345;48.272;25.926;2022-07-06T02:53:10;16.80;;;8.55;;
26750;SDS011;14345;48.272;25.926;2022-07-06T02:55:36;11.95;;;8.02;;
26750;SDS011;14345;48.272;25.926;2022-07-06T02:58:02;11.68;;;7.88;;
26750;SDS011;14345;48.272;25.926;2022-07-06T03:00:28;10.55;;;8.68;;
26750;SDS011;14345;48.272;25.926;2022-07-06T03:02:54;11.02;;;7.43;;
26750;SDS011;14345;48.272;25.926;2022-07-06T03:05:20;11.55;;;7.15;;
26750;SDS011;14345;48.272;25.926;2022-07-06T03:07:47;8.48;;;7.13;;
26750;SDS011;14345;48.272;25.926;2022-07-06T03:10:13;8.60;;;6.63;;
26750;SDS011;14345;48.272;25.926;2022-07-06T03:12:39;9.50;;;6.93;;
26750;SDS011;14345;48.272;25.926;2022-07-06T03:15:05;10.90;;;8.25;;
26750;SDS011;14345;48.272;25.926;2022-07-06T03:17:31;11.13;;;8.30;;
26750;SDS011;14345;48.272;25.926;2022-07-06T03:19:57;9.10;;;7.63;;
26750;SDS011;14345;48.272;25.926;2022-07-06T03:22:23;9.50;;;7.65;;
26750;SDS011;14345;48.272;25.926;2022-07-06T03:24:49;9.35;;;7.55;;
26750;SDS011;14345;48.272;25.926;2022-07-06T03:27:15;7.70;;;6.90;;
26750;SDS011;14345;48.272;25.926;2022-07-06T03:29:41;9.57;;;8.00;;
26750;SDS011;14345;48.272;25.926;2022-07-06T03:32:07;9.38;;;7.88;;
26750;SDS011;14345;48.272;25.926;2022-07-06T03:34:33;9.73;;;8.10;;
26750;SDS011;14345;48.272;25.926;2022-07-06T03:36:59;10.52;;;8.25;;
26750;SDS011;14345;48.272;25.926;2022-07-06T03:39:25;8.82;;;7.35;;
26750;SDS011;14345;48.272;25.926;2022-07-06T03:41:51;9.27;;;8.00;;
26750;SDS011;14345;48.272;25.926;2022-07-06T03:44:17;10.32;;;7.07;;
26750;SDS011;14345;48.272;25.926;2022-07-06T03:46:44;9.07;;;7.70;;
26750;SDS011;14345;48.272;25.926;2022-07-06T03:49:10;9.90;;;7.72;;
26750;SDS011;14345;48.272;25.926;2022-07-06T03:51:36;9.23;;;6.75;;
26750;SDS011;14345;48.272;25.926;2022-07-06T03:54:02;6.75;;;5.80;;
26750;SDS011;14345;48.272;25.926;2022-07-06T03:56:28;7.13;;;6.20;;
26750;SDS011;14345;48.272;25.926;2022-07-06T03:58:58;8.27;;;6.90;;
26750;SDS011;14345;48.272;25.926;2022-07-06T04:01:24;7.38;;;6.63;;
26750;SDS011;14345;48.272;25.926;2022-07-06T04:03:50;8.00;;;6.30;;
26750;SDS011;14345;48.272;25.926;2022-07-06T04:06:16;10.60;;;7.40;;
26750;SDS011;14345;48.272;25.926;2022-07-06T04:08:42;8.07;;;6.72;;
26750;SDS011;14345;48.272;25.926;2022-07-06T04:11:08;8.20;;;6.07;;
26750;SDS011;14345;48.272;25.926;2022-07-06T04:13:34;7.35;;;5.65;;
26750;SDS011;14345;48.272;25.926;2022-07-06T04:16:02;10.70;;;5.95;;
26750;SDS011;14345;48.272;25.926;2022-07-06T04:18:28;8.48;;;5.78;;
26750;SDS011;14345;48.272;25.926;2022-07-06T04:20:54;6.43;;;5.72;;
26750;SDS011;14345;48.272;25.926;2022-07-06T04:23:22;6.15;;;5.55;;
26750;SDS011;14345;48.272;25.926;2022-07-06T04:25:48;7.63;;;5.50;;
26750;SDS011;14345;48.272;25.926;2022-07-06T04:28:14;6.38;;;5.75;;
26750;SDS011;14345;48.272;25.926;2022-07-06T04:30:41;7.55;;;5.25;;
26750;SDS011;14345;48.272;25.926;2022-07-06T04:33:07;6.30;;;5.20;;
26750;SDS011;14345;48.272;25.926;2022-07-06T04:35:33;7.68;;;5.40;;
26750;SDS011;14345;48.272;25.926;2022-07-06T04:37:59;6.72;;;5.40;;
26750;SDS011;14345;48.272;25.926;2022-07-06T04:40:25;7.20;;;5.85;;
26750;SDS011;14345;48.272;25.926;2022-07-06T04:42:51;5.72;;;5.20;;
26750;SDS011;14345;48.272;25.926;2022-07-06T04:45:17;6.63;;;5.40;;
26750;SDS011;14345;48.272;25.926;2022-07-06T04:47:43;6.95;;;5.47;;
26750;SDS011;14345;48.272;25.926;2022-07-06T04:50:09;6.70;;;5.18;;
26750;SDS011;14345;48.272;25.926;2022-07-06T04:52:36;8.05;;;5.70;;
26750;SDS011;14345;48.272;25.926;2022-07-06T04:55:02;8.50;;;5.72;;
26750;SDS011;14345;48.272;25.926;2022-07-06T04:57:30;6.60;;;5.82;;
26750;SDS011;14345;48.272;25.926;2022-07-06T04:59:56;6.88;;;5.80;;
26750;SDS011;14345;48.272;25.926;2022-07-06T05:02:22;6.95;;;5.50;;
26750;SDS011;14345;48.272;25.926;2022-07-06T05:04:48;9.63;;;8.63;;
26750;SDS011;14345;48.272;25.926;2022-07-06T05:07:15;31.10;;;25.00;;
26750;SDS011;14345;48.272;25.926;2022-07-06T05:09:41;15.55;;;12.73;;
26750;SDS011;14345;48.272;25.926;2022-07-06T05:12:07;7.60;;;6.80;;
26750;SDS011;14345;48.272;25.926;2022-07-06T05:14:33;8.30;;;6.10;;
26750;SDS011;14345;48.272;25.926;2022-07-06T05:16:59;6.28;;;5.22;;
26750;SDS011;14345;48.272;25.926;2022-07-06T05:19:25;6.28;;;5.28;;
26750;SDS011;14345;48.272;25.926;2022-07-06T05:21:51;6.53;;;5.38;;
26750;SDS011;14345;48.272;25.926;2022-07-06T05:24:17;7.00;;;5.22;;
26750;SDS011;14345;48.272;25.926;2022-07-06T05:26:44;5.88;;;5.13;;
26750;SDS011;14345;48.272;25.926;2022-07-06T05:29:10;10.32;;;6.28;;
26750;SDS011;14345;48.272;25.926;2022-07-06T05:31:36;8.95;;;5.88;;
26750;SDS011;14345;48.272;25.926;2022-07-06T05:34:02;6.82;;;5.75;;
26750;SDS011;14345;48.272;25.926;2022-07-06T05:36:28;6.15;;;5.18;;
26750;SDS011;14345;48.272;25.926;2022-07-06T05:38:54;6.90;;;5.03;;
26750;SDS011;14345;48.272;25.926;2022-07-06T05:41:20;6.72;;;5.22;;
26750;SDS011;14345;48.272;25.926;2022-07-06T05:43:46;7.38;;;6.13;;
26750;SDS011;14345;48.272;25.926;2022-07-06T05:46:13;6.05;;;5.45;;
26750;SDS011;14345;48.272;25.926;2022-07-06T05:48:39;7.55;;;5.80;;
26750;SDS011;14345;48.272;25.926;2022-07-06T05:51:24;6.28;;;5.68;;
26750;SDS011;14345;48.272;25.926;2022-07-06T05:53:50;7.28;;;5.95;;
26750;SDS011;14345;48.272;25.926;2022-07-06T05:56:16;6.25;;;5.40;;
26750;SDS011;14345;48.272;25.926;2022-07-06T05:58:42;6.65;;;5.13;;
26750;SDS011;14345;48.272;25.926;2022-07-06T06:01:08;9.40;;;4.88;;
26750;SDS011;14345;48.272;25.926;2022-07-06T06:03:35;6.40;;;5.10;;
26750;SDS011;14345;48.272;25.926;2022-07-06T06:06:01;9.13;;;5.57;;
26750;SDS011;14345;48.272;25.926;2022-07-06T06:08:27;8.32;;;6.20;;
26750;SDS011;14345;48.272;25.926;2022-07-06T06:10:53;7.30;;;5.50;;
26750;SDS011;14345;48.272;25.926;2022-07-06T06:13:19;7.80;;;6.07;;
26750;SDS011;14345;48.272;25.926;2022-07-06T06:15:45;7.15;;;6.38;;
26750;SDS011;14345;48.272;25.926;2022-07-06T06:18:12;8.20;;;6.05;;
26750;SDS011;14345;48.272;25.926;2022-07-06T06:20:38;6.90;;;6.18;;
26750;SDS011;14345;48.272;25.926;2022-07-06T06:23:04;6.40;;;5.68;;
26750;SDS011;14345;48.272;25.926;2022-07-06T06:25:34;7.57;;;6.78;;
26750;SDS011;14345;48.272;25.926;2022-07-06T06:28:01;13.43;;;7.32;;
26750;SDS011;14345;48.272;25.926;2022-07-06T06:30:28;9.93;;;6.90;;
26750;SDS011;14345;48.272;25.926;2022-07-06T06:35:32;13.68;;;11.20;;
26750;SDS011;14345;48.272;25.926;2022-07-06T06:37:58;15.50;;;12.38;;
26750;SDS011;14345;48.272;25.926;2022-07-06T06:40:24;8.60;;;7.18;;
26750;SDS011;14345;48.272;25.926;2022-07-06T06:42:50;8.68;;;7.03;;
26750;SDS011;14345;48.272;25.926;2022-07-06T06:45:16;7.78;;;6.18;;
26750;SDS011;14345;48.272;25.926;2022-07-06T06:47:42;6.72;;;6.03;;
26750;SDS011;14345;48.272;25.926;2022-07-06T06:50:08;7.65;;;6.47;;
26750;SDS011;14345;48.272;25.926;2022-07-06T06:52:34;9.13;;;5.95;;
26750;SDS011;14345;48.272;25.926;2022-07-06T06:55:00;6.90;;;5.72;;
26750;SDS011;14345;48.272;25.926;2022-07-06T06:57:26;7.25;;;6.00;;
26750;SDS011;14345;48.272;25.926;2022-07-06T06:59:54;7.03;;;5.75;;
26750;SDS011;14345;48.272;25.926;2022-07-06T07:02:20;8.13;;;6.60;;
26750;SDS011;14345;48.272;25.926;2022-07-06T07:04:46;6.05;;;4.90;;
26750;SDS011;14345;48.272;25.926;2022-07-06T07:07:12;7.45;;;5.68;;
26750;SDS011;14345;48.272;25.926;2022-07-06T07:09:38;7.15;;;6.03;;
26750;SDS011;14345;48.272;25.926;2022-07-06T07:12:04;7.70;;;6.35;;
26750;SDS011;14345;48.272;25.926;2022-07-06T07:14:31;10.13;;;6.40;;
26750;SDS011;14345;48.272;25.926;2022-07-06T07:16:57;7.38;;;5.70;;
26750;SDS011;14345;48.272;25.926;2022-07-06T07:19:23;7.57;;;5.25;;
26750;SDS011;14345;48.272;25.926;2022-07-06T07:21:49;5.88;;;5.22;;
26750;SDS011;14345;48.272;25.926;2022-07-06T07:24:15;6.30;;;5.60;;
26750;SDS011;14345;48.272;25.926;2022-07-06T07:26:41;10.13;;;6.28;;
26750;SDS011;14345;48.272;25.926;2022-07-06T07:29:07;7.68;;;6.80;;
26750;SDS011;14345;48.272;25.926;2022-07-06T07:31:33;8.60;;;6.97;;
26750;SDS011;14345;48.272;25.926;2022-07-06T07:33:59;6.90;;;6.20;;
26750;SDS011;14345;48.272;25.926;2022-07-06T07:36:25;8.27;;;7.25;;
26750;SDS011;14345;48.272;25.926;2022-07-06T07:38:51;8.30;;;6.75;;
26750;SDS011;14345;48.272;25.926;2022-07-06T07:41:18;8.75;;;6.30;;
26750;SDS011;14345;48.272;25.926;2022-07-06T07:43:44;9.00;;;6.85;;
26750;SDS011;14345;48.272;25.926;2022-07-06T07:46:10;7.72;;;6.53;;
26750;SDS011;14345;48.272;25.926;2022-07-06T07:48:36;6.22;;;5.63;;
26750;SDS011;14345;48.272;25.926;2022-07-06T07:51:02;6.82;;;6.00;;
26750;SDS011;14345;48.272;25.926;2022-07-06T07:53:28;7.25;;;6.38;;
26750;SDS011;14345;48.272;25.926;2022-07-06T07:55:54;9.13;;;7.38;;
26750;SDS011;14345;48.272;25.926;2022-07-06T07:58:20;7.03;;;6.32;;
26750;SDS011;14345;48.272;25.926;2022-07-06T08:00:46;7.18;;;6.30;;
26750;SDS011;14345;48.272;25.926;2022-07-06T08:03:12;10.05;;;6.10;;
26750;SDS011;14345;48.272;25.926;2022-07-06T08:05:38;7.63;;;6.55;;
26750;SDS011;14345;48.272;25.926;2022-07-06T08:08:04;8.73;;;6.60;;
26750;SDS011;14345;48.272;25.926;2022-07-06T08:10:30;12.05;;;7.05;;
26750;SDS011;14345;48.272;25.926;2022-07-06T08:12:56;7.78;;;6.53;;
26750;SDS011;14345;48.272;25.926;2022-07-06T08:15:22;6.65;;;5.95;;
26750;SDS011;14345;48.272;25.926;2022-07-06T08:17:49;7.68;;;6.57;;
26750;SDS011;14345;48.272;25.926;2022-07-06T08:20:15;7.53;;;5.82;;
26750;SDS011;14345;48.272;25.926;2022-07-06T08:22:41;8.75;;;6.68;;
26750;SDS011;14345;48.272;25.926;2022-07-06T08:25:08;12.63;;;7.05;;
26750;SDS011;14345;48.272;25.926;2022-07-06T08:27:34;9.55;;;7.10;;
26750;SDS011;14345;48.272;25.926;2022-07-06T08:30:00;8.57;;;6.38;;
26750;SDS011;14345;48.272;25.926;2022-07-06T08:32:27;9.52;;;7.32;;
26750;SDS011;14345;48.272;25.926;2022-07-06T08:34:53;8.73;;;7.05;;
26750;SDS011;14345;48.272;25.926;2022-07-06T08:37:19;9.77;;;6.47;;
26750;SDS011;14345;48.272;25.926;2022-07-06T08:39:45;8.98;;;6.07;;
26750;SDS011;14345;48.272;25.926;2022-07-06T08:42:12;8.60;;;6.03;;
26750;SDS011;14345;48.272;25.926;2022-07-06T08:44:38;8.88;;;5.78;;
26750;SDS011;14345;48.272;25.926;2022-07-06T08:47:04;5.72;;;5.13;;
26750;SDS011;14345;48.272;25.926;2022-07-06T08:49:33;7.85;;;5.35;;
26750;SDS011;14345;48.272;25.926;2022-07-06T08:52:00;8.20;;;5.30;;
26750;SDS011;14345;48.272;25.926;2022-07-06T08:54:28;8.27;;;5.15;;
26750;SDS011;14345;48.272;25.926;2022-07-06T08:56:54;5.72;;;4.93;;
26750;SDS011;14345;48.272;25.926;2022-07-06T08:59:20;7.07;;;4.03;;
26750;SDS011;14345;48.272;25.926;2022-07-06T09:01:46;5.63;;;4.03;;
26750;SDS011;14345;48.272;25.926;2022-07-06T09:04:15;4.90;;;3.80;;
26750;SDS011;14345;48.272;25.926;2022-07-06T09:06:42;3.83;;;3.20;;
26750;SDS011;14345;48.272;25.926;2022-07-06T09:09:08;3.85;;;3.30;;
26750;SDS011;14345;48.272;25.926;2022-07-06T09:11:35;3.47;;;2.90;;
26750;SDS011;14345;48.272;25.926;2022-07-06T09:14:03;6.78;;;2.67;;
26750;SDS011;14345;48.272;25.926;2022-07-06T09:16:29;5.40;;;2.80;;
26750;SDS011;14345;48.272;25.926;2022-07-06T09:18:55;3.92;;;2.53;;
26750;SDS011;14345;48.272;25.926;2022-07-06T09:21:26;2.75;;;2.20;;
26750;SDS011;14345;48.272;25.926;2022-07-06T09:23:53;3.15;;;2.10;;
26750;SDS011;14345;48.272;25.926;2022-07-06T09:26:19;4.57;;;2.28;;
26750;SDS011;14345;48.272;25.926;2022-07-06T09:28:45;2.40;;;2.20;;
26750;SDS011;14345;48.272;25.926;2022-07-06T09:31:12;2.22;;;1.98;;
26750;SDS011;14345;48.272;25.926;2022-07-06T09:33:38;2.08;;;1.85;;
26750;SDS011;14345;48.272;25.926;2022-07-06T09:36:04;2.25;;;1.80;;
26750;SDS011;14345;48.272;25.926;2022-07-06T09:38:31;2.65;;;2.00;;
26750;SDS011;14345;48.272;25.926;2022-07-06T09:40:57;2.90;;;2.20;;
26750;SDS011;14345;48.272;25.926;2022-07-06T09:43:24;2.65;;;2.00;;
26750;SDS011;14345;48.272;25.926;2022-07-06T09:45:51;3.08;;;2.60;;
26750;SDS011;14345;48.272;25.926;2022-07-06T09:48:18;3.30;;;2.97;;
26750;SDS011;14345;48.272;25.926;2022-07-06T09:50:54;3.40;;;2.88;;
26750;SDS011;14345;48.272;25.926;2022-07-06T09:53:21;4.60;;;3.28;;
26750;SDS011;14345;48.272;25.926;2022-07-06T09:55:49;5.28;;;3.05;;
26750;SDS011;14345;48.272;25.926;2022-07-06T09:58:16;7.13;;;3.72;;
26750;SDS011;14345;48.272;25.926;2022-07-06T10:00:43;4.32;;;3.92;;
26750;SDS011;14345;48.272;25.926;2022-07-06T10:03:09;5.95;;;3.50;;
26750;SDS011;14345;48.272;25.926;2022-07-06T10:05:36;5.43;;;4.05;;
26750;SDS011;14345;48.272;25.926;2022-07-06T10:08:02;6.18;;;4.13;;
26750;SDS011;14345;48.272;25.926;2022-07-06T10:10:31;4.18;;;3.78;;
26750;SDS011;14345;48.272;25.926;2022-07-06T10:12:58;4.97;;;3.60;;
26750;SDS011;14345;48.272;25.926;2022-07-06T10:15:25;4.85;;;3.50;;
26750;SDS011;14345;48.272;25.926;2022-07-06T10:17:51;3.95;;;3.08;;
26750;SDS011;14345;48.272;25.926;2022-07-06T10:20:18;5.53;;;3.05;;
26750;SDS011;14345;48.272;25.926;2022-07-06T10:22:45;4.70;;;2.90;;
26750;SDS011;14345;48.272;25.926;2022-07-06T10:25:11;3.92;;;3.03;;
26750;SDS011;14345;48.272;25.926;2022-07-06T10:27:37;3.42;;;2.60;;
26750;SDS011;14345;48.272;25.926;2022-07-06T10:30:03;4.95;;;2.90;;
26750;SDS011;14345;48.272;25.926;2022-07-06T10:32:30;5.15;;;3.20;;
26750;SDS011;14345;48.272;25.926;2022-07-06T10:34:56;3.42;;;2.65;;
26750;SDS011;14345;48.272;25.926;2022-07-06T10:37:24;3.58;;;2.75;;
26750;SDS011;14345;48.272;25.926;2022-07-06T10:39:51;4.55;;;3.65;;
26750;SDS011;14345;48.272;25.926;2022-07-06T10:45:08;4.72;;;3.70;;
26750;SDS011;14345;48.272;25.926;2022-07-06T10:47:35;5.32;;;3.95;;
26750;SDS011;14345;48.272;25.926;2022-07-06T10:50:02;3.88;;;3.47;;
26750;SDS011;14345;48.272;25.926;2022-07-06T10:53:11;6.20;;;5.13;;
26750;SDS011;14345;48.272;25.926;2022-07-06T10:58:39;7.70;;;6.40;;
26750;SDS011;14345;48.272;25.926;2022-07-06T11:01:07;7.78;;;6.88;;
26750;SDS011;14345;48.272;25.926;2022-07-06T11:03:38;7.60;;;6.63;;
26750;SDS011;14345;48.272;25.926;2022-07-06T11:14:18;9.18;;;8.18;;
26750;SDS011;14345;48.272;25.926;2022-07-06T11:16:59;8.88;;;7.55;;
26750;SDS011;14345;48.272;25.926;2022-07-06T11:19:29;10.18;;;7.30;;
26750;SDS011;14345;48.272;25.926;2022-07-06T11:21:57;8.90;;;7.13;;
26750;SDS011;14345;48.272;25.926;2022-07-06T11:26:50;7.07;;;6.38;;
26750;SDS011;14345;48.272;25.926;2022-07-06T11:29:18;7.55;;;6.55;;
26750;SDS011;14345;48.272;25.926;2022-07-06T11:31:46;7.10;;;6.40;;
26750;SDS011;14345;48.272;25.926;2022-07-06T11:34:20;7.93;;;6.38;;
26750;SDS011;14345;48.272;25.926;2022-07-06T11:36:46;7.95;;;5.47;;
26750;SDS011;14345;48.272;25.926;2022-07-06T11:39:13;6.90;;;6.20;;
26750;SDS011;14345;48.272;25.926;2022-07-06T11:41:39;8.45;;;5.32;;
26750;SDS011;14345;48.272;25.926;2022-07-06T11:44:05;8.07;;;5.45;;
26750;SDS011;14345;48.272;25.926;2022-07-06T11:46:35;5.18;;;4.65;;
26750;SDS011;14345;48.272;25.926;2022-07-06T11:49:08;5.82;;;4.80;;
26750;SDS011;14345;48.272;25.926;2022-07-06T11:51:35;5.22;;;4.68;;
26750;SDS011;14345;48.272;25.926;2022-07-06T11:54:07;4.55;;;4.00;;
26750;SDS011;14345;48.272;25.926;2022-07-06T11:56:33;7.22;;;4.32;;
26750;SDS011;14345;48.272;25.926;2022-07-06T11:59:00;5.53;;;4.50;;
26750;SDS011;14345;48.272;25.926;2022-07-06T12:01:27;6.28;;;4.47;;
26750;SDS011;14345;48.272;25.926;2022-07-06T12:03:56;5.03;;;4.28;;
26750;SDS011;14345;48.272;25.926;2022-07-06T12:06:24;6.32;;;4.85;;
26750;SDS011;14345;48.272;25.926;2022-07-06T12:08:52;4.53;;;3.97;;
26750;SDS011;14345;48.272;25.926;2022-07-06T12:11:19;4.57;;;3.90;;
26750;SDS011;14345;48.272;25.926;2022-07-06T12:13:45;4.53;;;4.10;;
26750;SDS011;14345;48.272;25.926;2022-07-06T12:16:12;4.32;;;3.85;;
26750;SDS011;14345;48.272;25.926;2022-07-06T12:18:39;3.60;;;3.30;;
26750;SDS011;14345;48.272;25.926;2022-07-06T12:21:12;3.67;;;3.33;;
26750;SDS011;14345;48.272;25.926;2022-07-06T12:23:42;3.50;;;3.20;;
26750;SDS011;14345;48.272;25.926;2022-07-06T12:26:09;3.20;;;2.90;;
26750;SDS011;14345;48.272;25.926;2022-07-06T12:28:35;6.20;;;3.10;;
26750;SDS011;14345;48.272;25.926;2022-07-06T12:31:02;3.60;;;2.60;;
26750;SDS011;14345;48.272;25.926;2022-07-06T12:33:28;2.65;;;2.45;;
26750;SDS011;14345;48.272;25.926;2022-07-06T12:35:54;2.33;;;2.08;;
26750;SDS011;14345;48.272;25.926;2022-07-06T12:38:26;2.60;;;2.40;;
26750;SDS011;14345;48.272;25.926;2022-07-06T12:40:54;2.65;;;2.25;;
26750;SDS011;14345;48.272;25.926;2022-07-06T12:43:39;1.95;;;1.85;;
26750;SDS011;14345;48.272;25.926;2022-07-06T12:48:50;2.20;;;2.00;;
26750;SDS011;14345;48.272;25.926;2022-07-06T12:51:17;2.20;;;2.00;;
26750;SDS011;14345;48.272;25.926;2022-07-06T12:53:43;3.80;;;2.65;;
26750;SDS011;14345;48.272;25.926;2022-07-06T12:56:13;4.63;;;3.90;;
26750;SDS011;14345;48.272;25.926;2022-07-06T12:58:39;7.43;;;5.43;;
26750;SDS011;14345;48.272;25.926;2022-07-06T13:01:05;10.02;;;7.10;;
26750;SDS011;14345;48.272;25.926;2022-07-06T13:03:38;10.40;;;8.45;;
26750;SDS011;14345;48.272;25.926;2022-07-06T13:06:04;10.03;;;7.43;;
26750;SDS011;14345;48.272;25.926;2022-07-06T13:08:31;12.25;;;8.60;;
26750;SDS011;14345;48.272;25.926;2022-07-06T13:10:57;11.85;;;8.93;;
26750;SDS011;14345;48.272;25.926;2022-07-06T13:13:23;11.50;;;8.90;;
26750;SDS011;14345;48.272;25.926;2022-07-06T13:15:49;10.77;;;8.55;;
26750;SDS011;14345;48.272;25.926;2022-07-06T13:18:18;10.18;;;8.13;;
26750;SDS011;14345;48.272;25.926;2022-07-06T13:20:45;9.32;;;8.02;;
26750;SDS011;14345;48.272;25.926;2022-07-06T13:23:11;10.02;;;7.70;;
26750;SDS011;14345;48.272;25.926;2022-07-06T13:25:41;8.70;;;6.95;;
26750;SDS011;14345;48.272;25.926;2022-07-06T13:28:07;9.82;;;7.18;;
26750;SDS011;14345;48.272;25.926;2022-07-06T13:30:33;9.10;;;6.40;;
26750;SDS011;14345;48.272;25.926;2022-07-06T13:32:59;7.18;;;6.30;;
26750;SDS011;14345;48.272;25.926;2022-07-06T13:35:25;6.10;;;5.18;;
26750;SDS011;14345;48.272;25.926;2022-07-06T13:37:51;6.75;;;6.05;;
26750;SDS011;14345;48.272;25.926;2022-07-06T13:40:17;7.63;;;6.57;;
26750;SDS011;14345;48.272;25.926;2022-07-06T13:42:43;6.25;;;5.65;;
26750;SDS011;14345;48.272;25.926;2022-07-06T13:45:11;5.53;;;5.03;;
26750;SDS011;14345;48.272;25.926;2022-07-06T13:47:37;5.28;;;4.78;;
26750;SDS011;14345;48.272;25.926;2022-07-06T13:50:03;6.57;;;4.40;;
26750;SDS011;14345;48.272;25.926;2022-07-06T13:52:29;5.10;;;4.47;;
26750;SDS011;14345;48.272;25.926;2022-07-06T13:54:55;3.67;;;3.38;;
26750;SDS011;14345;48.272;25.926;2022-07-06T13:57:21;4.20;;;3.20;;
26750;SDS011;14345;48.272;25.926;2022-07-06T13:59:47;4.60;;;4.00;;
26750;SDS011;14345;48.272;25.926;2022-07-06T14:02:13;9.10;;;6.43;;
26750;SDS011;14345;48.272;25.926;2022-07-06T14:04:43;7.97;;;6.10;;
26750;SDS011;14345;48.272;25.926;2022-07-06T14:07:11;4.70;;;3.95;;
26750;SDS011;14345;48.272;25.926;2022-07-06T14:09:40;4.10;;;3.17;;
26750;SDS011;14345;48.272;25.926;2022-07-06T14:12:07;3.25;;;2.95;;
26750;SDS011;14345;48.272;25.926;2022-07-06T14:14:33;2.30;;;2.10;;
26750;SDS011;14345;48.272;25.926;2022-07-06T14:16:59;3.70;;;2.78;;
26750;SDS011;14345;48.272;25.926;2022-07-06T14:19:25;4.65;;;2.85;;
26750;SDS011;14345;48.272;25.926;2022-07-06T14:21:52;3.05;;;2.58;;
26750;SDS011;14345;48.272;25.926;2022-07-06T14:24:18;3.03;;;2.70;;
26750;SDS011;14345;48.272;25.926;2022-07-06T14:26:44;5.45;;;3.35;;
26750;SDS011;14345;48.272;25.926;2022-07-06T14:29:10;4.75;;;3.42;;
26750;SDS011;14345;48.272;25.926;2022-07-06T14:31:36;3.80;;;3.05;;
26750;SDS011;14345;48.272;25.926;2022-07-06T14:34:02;3.22;;;2.65;;
26750;SDS011;14345;48.272;25.926;2022-07-06T14:36:28;3.25;;;2.92;;
26750;SDS011;14345;48.272;25.926;2022-07-06T14:38:55;6.28;;;2.70;;
26750;SDS011;14345;48.272;25.926;2022-07-06T14:41:21;3.75;;;2.45;;
26750;SDS011;14345;48.272;25.926;2022-07-06T14:43:47;6.43;;;2.53;;
26750;SDS011;14345;48.272;25.926;2022-07-06T14:46:13;2.80;;;2.45;;
26750;SDS011;14345;48.272;25.926;2022-07-06T14:48:39;4.47;;;3.20;;